createdAt,value
2018-09-24T00:01:53.090Z,14.12
2018-09-24T00:06:48.017Z,14.08
2018-09-24T00:11:42.890Z,14.03
2018-09-24T00:16:37.767Z,13.94
2018-09-24T00:21:32.612Z,13.81
2018-09-24T00:26:27.478Z,13.76
2018-09-24T00:31:22.371Z,13.66
2018-09-24T00:36:17.247Z,13.67
2018-09-24T00:41:12.126Z,13.60
2018-09-24T00:46:07.125Z,13.39
2018-09-24T00:51:01.939Z,13.18
2018-09-24T00:55:56.731Z,13.03
2018-09-24T01:00:51.553Z,12.90
2018-09-24T01:05:46.369Z,12.76
2018-09-24T01:10:41.158Z,12.81
2018-09-24T01:15:35.941Z,12.60
2018-09-24T01:20:30.742Z,12.62
2018-09-24T01:25:25.516Z,12.82
2018-09-24T01:30:20.341Z,12.97
2018-09-24T01:35:15.141Z,12.79
2018-09-24T01:40:09.929Z,12.68
2018-09-24T01:45:04.774Z,12.49
2018-09-24T01:49:59.632Z,12.39
2018-09-24T01:54:54.413Z,12.63
2018-09-24T01:59:57.637Z,12.86
2018-09-24T02:04:52.457Z,12.81
2018-09-24T02:09:47.587Z,12.87
2018-09-24T02:14:48.961Z,12.76
2018-09-24T02:19:44.539Z,12.71
2018-09-24T02:24:39.344Z,12.49
2018-09-24T02:29:34.139Z,12.39
2018-09-24T02:34:28.946Z,12.44
2018-09-24T02:39:23.740Z,12.40
2018-09-24T02:44:18.530Z,12.36
2018-09-24T02:49:13.337Z,12.27
2018-09-24T02:54:08.301Z,12.29
2018-09-24T02:59:03.075Z,12.26
2018-09-24T03:03:57.829Z,12.42
2018-09-24T03:08:52.657Z,12.39
2018-09-24T03:13:47.426Z,12.31
2018-09-24T03:18:42.843Z,12.12
2018-09-24T03:23:37.612Z,11.90
2018-09-24T03:28:32.401Z,11.99
2018-09-24T03:33:27.305Z,11.85
2018-09-24T03:38:22.077Z,11.86
2018-09-24T03:43:16.841Z,11.80
2018-09-24T03:48:11.627Z,11.73
2018-09-24T03:53:06.452Z,11.40
2018-09-24T03:58:01.240Z,11.52
2018-09-24T04:02:56.009Z,11.63
2018-09-24T04:07:55.917Z,11.66
2018-09-24T04:12:55.697Z,11.69
2018-09-24T04:17:55.502Z,11.47
2018-09-24T04:22:55.401Z,11.24
2018-09-24T04:27:55.242Z,11.45
2018-09-24T04:32:54.974Z,11.46
2018-09-24T04:37:54.769Z,11.51
2018-09-24T04:42:54.476Z,11.41
2018-09-24T04:47:54.394Z,11.32
2018-09-24T04:52:54.253Z,11.33
2018-09-24T04:57:54.146Z,11.00
2018-09-24T05:02:54.062Z,11.18
2018-09-24T05:07:53.817Z,11.22
2018-09-24T05:12:53.733Z,10.96
2018-09-24T05:17:53.460Z,10.67
2018-09-24T05:22:53.388Z,10.52
2018-09-24T05:27:53.142Z,10.64
2018-09-24T05:32:52.924Z,10.64
2018-09-24T05:37:52.698Z,10.62
2018-09-24T05:42:52.645Z,10.48
2018-09-24T05:47:52.505Z,10.61
2018-09-24T05:52:52.376Z,10.66
2018-09-24T05:57:52.261Z,10.39
2018-09-24T06:02:52.166Z,10.83
2018-09-24T06:07:52.006Z,11.00
2018-09-24T06:12:51.958Z,11.07
2018-09-24T06:17:51.885Z,11.21
2018-09-24T06:22:51.818Z,11.36
2018-09-24T06:27:51.585Z,11.37
2018-09-24T06:32:51.419Z,11.44
2018-09-24T06:37:51.209Z,11.60
2018-09-24T06:42:51.026Z,11.98
2018-09-24T06:47:50.898Z,12.03
2018-09-24T06:52:50.769Z,11.77
2018-09-24T06:57:50.582Z,11.67
2018-09-24T07:02:50.540Z,12.01
2018-09-24T07:07:50.434Z,12.00
2018-09-24T07:12:50.331Z,12.09
2018-09-24T07:17:50.146Z,12.01
2018-09-24T07:22:49.923Z,11.88
2018-09-24T07:27:49.854Z,11.95
2018-09-24T07:32:49.589Z,11.94
2018-09-24T07:37:49.306Z,12.28
2018-09-24T07:42:49.192Z,12.48
2018-09-24T07:47:49.069Z,12.46
2018-09-24T07:52:49.026Z,12.62
2018-09-24T07:57:48.849Z,12.78
2018-09-24T08:02:48.759Z,12.18
2018-09-24T08:07:48.603Z,12.88
2018-09-24T08:12:48.415Z,12.97
2018-09-24T08:17:48.242Z,12.66
2018-09-24T08:22:48.104Z,12.70
2018-09-24T08:27:47.886Z,12.37
2018-09-24T08:32:47.724Z,12.62
2018-09-24T08:37:47.682Z,12.83
2018-09-24T08:42:47.638Z,13.37
2018-09-24T08:47:47.461Z,13.47
2018-09-24T08:52:47.293Z,13.78
2018-09-24T08:57:47.238Z,14.34
2018-09-24T09:02:47.084Z,15.04
2018-09-24T09:07:46.918Z,14.39
2018-09-24T09:12:46.701Z,13.41
2018-09-24T09:30:40.930Z,12.87
2018-09-24T09:35:40.924Z,13.59
2018-09-24T09:40:40.836Z,14.02
2018-09-24T09:45:40.690Z,15.49
2018-09-24T09:50:40.577Z,16.20
2018-09-24T09:55:40.377Z,16.78
2018-09-24T10:00:40.286Z,16.30
2018-09-24T10:05:40.132Z,15.15
2018-09-24T10:10:39.945Z,14.96
2018-09-24T10:15:39.902Z,14.91
2018-09-24T10:20:39.648Z,15.30
2018-09-24T10:25:39.441Z,14.51
2018-09-24T10:30:39.220Z,14.22
2018-09-24T10:35:39.015Z,13.94
2018-09-24T10:40:38.853Z,14.04
2018-09-24T10:45:38.805Z,14.77
2018-09-24T10:50:38.709Z,15.33
2018-09-24T10:55:38.548Z,15.68
2018-09-24T11:00:38.350Z,15.82
2018-09-24T11:05:38.348Z,15.65
2018-09-24T11:10:38.147Z,15.46
2018-09-24T11:15:38.002Z,14.97
2018-09-24T11:20:37.924Z,15.02
2018-09-24T11:25:37.851Z,15.01
2018-09-24T11:30:37.772Z,15.13
2018-09-24T11:35:37.719Z,15.09
2018-09-24T11:40:37.510Z,15.19
2018-09-24T11:45:37.418Z,15.49
2018-09-24T11:50:37.193Z,15.50
2018-09-24T12:02:59.270Z,16.23
2018-09-24T12:07:59.160Z,16.06
2018-09-24T12:12:58.913Z,15.82
2018-09-24T12:17:58.926Z,15.37
2018-09-24T12:22:58.787Z,15.51
2018-09-24T12:27:58.712Z,15.71
2018-09-24T12:32:58.598Z,15.81
2018-09-24T12:37:58.446Z,16.16
2018-09-24T12:42:58.356Z,16.32
2018-09-24T12:47:58.198Z,16.30
2018-09-24T12:52:58.040Z,15.62
2018-09-24T12:57:57.846Z,14.99
2018-09-24T13:02:57.831Z,14.69
2018-09-24T13:07:57.694Z,14.63
2018-09-24T13:12:57.632Z,14.61
2018-09-24T13:17:57.545Z,14.71
2018-09-24T13:22:57.430Z,14.88
2018-09-24T13:27:57.207Z,15.20
2018-09-24T13:32:56.962Z,15.49
2018-09-24T13:37:56.697Z,15.73
2018-09-24T13:42:56.534Z,15.76
2018-09-24T13:47:56.335Z,15.27
2018-09-24T13:52:56.237Z,14.89
2018-09-24T13:57:56.072Z,14.41
2018-09-24T14:02:56.328Z,14.28
2018-09-24T14:07:56.255Z,14.25
2018-09-24T14:12:56.073Z,14.12
2018-09-24T14:17:55.894Z,14.50
2018-09-24T14:22:55.690Z,14.79
2018-09-24T14:27:55.568Z,14.90
2018-09-24T14:32:55.494Z,15.02
2018-09-24T14:37:55.127Z,15.23
2018-09-24T14:42:55.053Z,15.55
2018-09-24T14:47:54.884Z,15.58
2018-09-24T14:52:54.664Z,15.43
2018-09-24T14:57:54.629Z,15.05
2018-09-24T15:02:54.599Z,14.62
2018-09-24T15:07:54.376Z,14.55
2018-09-24T15:12:54.178Z,14.71
2018-09-24T15:17:53.993Z,14.88
2018-09-24T15:22:53.902Z,15.19
2018-09-24T15:27:53.846Z,15.37
2018-09-24T15:32:53.638Z,15.49
2018-09-24T15:37:53.379Z,15.43
2018-09-24T15:42:53.329Z,15.03
2018-09-24T15:47:53.093Z,14.76
2018-09-24T15:52:53.005Z,14.45
2018-09-24T15:57:52.786Z,14.31
2018-09-24T16:02:52.577Z,14.21
2018-09-24T16:07:52.385Z,14.11
2018-09-24T16:12:52.366Z,13.97
2018-09-24T16:17:52.305Z,13.96
2018-09-24T16:22:52.231Z,13.85
2018-09-24T16:27:52.009Z,13.74
2018-09-24T16:32:51.915Z,13.50
2018-09-24T16:37:51.754Z,13.31
2018-09-24T16:42:51.686Z,13.33
2018-09-24T16:47:51.647Z,13.18
2018-09-24T16:52:51.598Z,12.95
2018-09-24T16:57:51.474Z,12.85
2018-09-24T17:02:51.252Z,12.70
2018-09-24T17:07:52.007Z,12.55
2018-09-24T17:12:51.881Z,12.54
2018-09-24T17:17:51.698Z,12.43
2018-09-24T17:22:51.553Z,12.38
2018-09-24T17:27:51.330Z,12.21
2018-09-24T17:32:51.097Z,11.97
2018-09-24T17:37:50.918Z,12.08
2018-09-24T17:42:50.771Z,11.92
2018-09-24T17:47:50.665Z,11.75
2018-09-24T17:52:50.467Z,11.73
2018-09-24T17:57:50.280Z,11.68
2018-09-24T18:02:50.064Z,11.37
2018-09-24T18:07:50.002Z,11.45
2018-09-24T18:12:49.887Z,11.45
2018-09-24T18:17:49.688Z,11.27
2018-09-24T18:22:49.489Z,11.24
2018-09-24T18:27:49.347Z,11.10
2018-09-24T18:32:49.227Z,11.08
2018-09-24T18:37:49.058Z,11.11
2018-09-24T18:42:49.080Z,11.06
2018-09-24T18:47:49.001Z,10.98
2018-09-24T18:52:49.017Z,10.86
2018-09-24T18:57:48.898Z,10.89
2018-09-24T19:02:48.812Z,10.92
2018-09-24T19:07:48.775Z,10.73
2018-09-24T19:12:48.562Z,10.68
2018-09-24T19:17:48.413Z,10.65
2018-09-24T19:22:48.235Z,10.68
2018-09-24T19:27:48.208Z,10.85
2018-09-24T19:32:48.156Z,11.00
2018-09-24T19:37:48.126Z,11.12
2018-09-24T19:42:48.024Z,11.14
2018-09-24T19:47:47.898Z,11.19
2018-09-24T19:52:47.722Z,11.06
2018-09-24T19:57:47.552Z,11.17
2018-09-24T20:02:47.323Z,11.14
2018-09-24T20:07:47.114Z,11.08
2018-09-24T20:12:47.078Z,11.03
2018-09-24T20:17:46.973Z,11.08
2018-09-24T20:22:46.774Z,11.08
2018-09-24T20:27:46.641Z,10.83
2018-09-24T20:32:46.450Z,10.82
2018-09-24T20:37:46.332Z,10.61
2018-09-24T20:42:46.258Z,10.36
2018-09-24T20:47:46.140Z,10.10
2018-09-24T20:52:46.013Z,10.03
2018-09-24T20:57:45.931Z,9.97
2018-09-24T21:02:45.814Z,9.87
2018-09-24T21:07:45.784Z,10.27
2018-09-24T21:12:45.588Z,10.32
2018-09-24T21:17:45.550Z,10.40
2018-09-24T21:22:45.354Z,10.37
2018-09-24T21:27:45.176Z,10.32
2018-09-24T21:32:45.140Z,10.46
2018-09-24T21:37:44.884Z,10.49
2018-09-24T21:42:44.677Z,10.40
2018-09-24T21:47:44.554Z,10.33
2018-09-24T21:52:44.343Z,10.18
2018-09-24T21:57:44.192Z,10.21
2018-09-24T22:02:44.161Z,10.15
2018-09-24T22:07:43.907Z,10.30
2018-09-24T22:12:45.661Z,10.27
2018-09-24T22:17:45.626Z,10.33
2018-09-24T22:22:45.383Z,10.22
2018-09-24T22:27:45.123Z,9.69
2018-09-24T22:32:44.891Z,9.39
2018-09-24T22:37:44.664Z,9.33
2018-09-24T22:42:44.490Z,9.19
2018-09-24T22:47:44.269Z,9.02
2018-09-24T22:52:44.022Z,8.83
2018-09-24T22:57:43.973Z,8.75
2018-09-24T23:02:43.831Z,8.55
2018-09-24T23:07:43.693Z,8.46
2018-09-24T23:12:43.487Z,8.75
2018-09-24T23:17:43.244Z,8.86
2018-09-24T23:22:43.089Z,8.80
2018-09-24T23:27:42.858Z,8.77
2018-09-24T23:32:42.666Z,8.73
2018-09-24T23:37:42.525Z,8.80
2018-09-24T23:42:42.357Z,8.61
2018-09-24T23:47:42.304Z,8.34
2018-09-24T23:52:42.156Z,8.31
2018-09-24T23:57:42.134Z,8.25
